createdAt,value
2018-07-01T00:01:27.513Z,0.50
2018-07-01T00:03:56.626Z,0.50
2018-07-01T00:06:25.446Z,0.67
2018-07-01T00:08:54.449Z,0.83
2018-07-01T00:11:23.507Z,0.60
2018-07-01T00:13:52.550Z,0.70
2018-07-01T00:16:21.883Z,0.60
2018-07-01T00:18:50.775Z,0.60
2018-07-01T00:21:19.663Z,0.47
2018-07-01T00:23:48.770Z,0.60
2018-07-01T00:26:17.854Z,0.60
2018-07-01T00:28:46.815Z,0.53
2018-07-01T00:31:15.850Z,0.70
2018-07-01T00:33:44.924Z,0.80
2018-07-01T00:36:13.966Z,0.50
2018-07-01T00:38:42.862Z,0.50
2018-07-01T00:41:11.878Z,0.67
2018-07-01T00:43:40.988Z,0.90
2018-07-01T00:46:10.259Z,0.83
2018-07-01T00:48:39.446Z,0.80
2018-07-01T00:51:08.724Z,0.53
2018-07-01T00:53:37.699Z,0.50
2018-07-01T00:56:07.354Z,0.60
2018-07-01T00:58:36.478Z,0.60
2018-07-01T01:01:05.470Z,0.70
2018-07-01T01:03:34.569Z,0.60
2018-07-01T01:06:03.260Z,0.73
2018-07-01T01:08:32.170Z,0.60
2018-07-01T01:11:01.188Z,0.70
2018-07-01T01:13:30.250Z,0.60
2018-07-01T01:15:59.218Z,0.40
2018-07-01T01:18:28.248Z,0.90
2018-07-01T01:20:57.106Z,0.70
2018-07-01T01:23:26.019Z,0.67
2018-07-01T01:25:55.250Z,0.40
2018-07-01T01:28:24.386Z,0.60
2018-07-01T01:30:53.449Z,0.70
2018-07-01T01:33:22.495Z,0.77
2018-07-01T01:35:51.450Z,0.57
2018-07-01T01:38:21.268Z,0.97
2018-07-01T01:40:54.394Z,0.60
2018-07-01T01:43:59.646Z,0.50
2018-07-01T01:46:36.108Z,0.70
2018-07-01T01:49:11.033Z,0.57
2018-07-01T01:51:45.122Z,0.70
2018-07-01T01:54:24.254Z,0.80
2018-07-01T01:56:55.226Z,0.80
2018-07-01T01:59:35.964Z,0.50
2018-07-01T02:04:11.399Z,0.60
2018-07-01T02:06:43.100Z,0.70
2018-07-01T02:09:15.466Z,0.50
2018-07-01T02:11:46.822Z,0.50
2018-07-01T02:14:21.299Z,0.67
2018-07-01T02:16:52.962Z,0.80
2018-07-01T02:19:21.862Z,0.43
2018-07-01T02:21:51.502Z,0.60
2018-07-01T02:24:26.382Z,0.40
2018-07-01T02:26:55.298Z,0.50
2018-07-01T02:29:24.194Z,0.70
2018-07-01T02:31:53.162Z,0.57
2018-07-01T02:34:21.858Z,0.40
2018-07-01T02:36:50.669Z,0.70
2018-07-01T02:39:19.607Z,0.70
2018-07-01T02:41:48.582Z,0.80
2018-07-01T02:44:17.578Z,0.60
2018-07-01T02:46:46.702Z,0.57
2018-07-01T02:49:16.406Z,0.70
2018-07-01T02:51:45.134Z,0.70
2018-07-01T02:54:14.006Z,0.60
2018-07-01T02:56:43.002Z,0.60
2018-07-01T02:59:12.001Z,0.50
2018-07-01T03:01:40.976Z,1.40
2018-07-01T03:04:09.874Z,0.67
2018-07-01T03:06:39.404Z,0.50
2018-07-01T03:09:10.354Z,0.57
2018-07-01T03:11:39.392Z,0.60
2018-07-01T03:14:08.410Z,0.50
2018-07-01T03:16:37.310Z,0.60
2018-07-01T03:19:06.231Z,0.80
2018-07-01T03:21:35.142Z,0.90
2018-07-01T03:24:04.114Z,0.80
2018-07-01T03:26:33.146Z,0.80
2018-07-01T03:29:02.098Z,0.60
2018-07-01T03:31:31.278Z,0.50
2018-07-01T03:34:00.298Z,0.80
2018-07-01T03:36:29.307Z,0.80
2018-07-01T03:38:58.455Z,0.53
2018-07-01T03:41:27.377Z,0.70
2018-07-01T03:43:56.276Z,0.67
2018-07-01T03:46:25.173Z,1.00
2018-07-01T03:48:53.829Z,0.70
2018-07-01T03:51:22.809Z,0.67
2018-07-01T03:53:52.031Z,0.77
2018-07-01T03:56:21.070Z,0.80
2018-07-01T03:58:50.319Z,0.60
2018-07-01T04:01:19.323Z,0.67
2018-07-01T04:03:48.332Z,0.70
2018-07-01T04:06:17.492Z,0.57
2018-07-01T04:08:46.566Z,0.60
2018-07-01T04:11:15.528Z,0.47
2018-07-01T04:13:44.481Z,0.70
2018-07-01T04:16:13.420Z,0.73
2018-07-01T04:18:42.402Z,0.60
2018-07-01T04:21:11.546Z,0.43
2018-07-01T04:23:40.590Z,0.40
2018-07-01T04:26:09.581Z,0.80
2018-07-01T04:28:38.678Z,0.53
2018-07-01T04:31:08.065Z,0.60
2018-07-01T04:33:36.934Z,0.80
2018-07-01T04:36:06.103Z,0.87
2018-07-01T04:38:34.966Z,0.70
2018-07-01T04:41:03.924Z,0.80
2018-07-01T04:43:32.905Z,0.70
2018-07-01T04:46:01.987Z,0.57
2018-07-01T04:48:30.944Z,0.80
2018-07-01T04:50:59.867Z,0.73
2018-07-01T04:53:28.816Z,0.53
2018-07-01T04:55:57.883Z,0.60
2018-07-01T04:58:26.825Z,0.60
2018-07-01T05:00:55.716Z,0.50
2018-07-01T05:03:24.607Z,0.63
2018-07-01T05:05:53.584Z,0.70
2018-07-01T05:08:22.521Z,0.53
2018-07-01T05:10:53.156Z,0.60
2018-07-01T05:13:22.012Z,0.50
2018-07-01T05:15:50.939Z,0.70
2018-07-01T05:18:19.833Z,0.50
2018-07-01T05:20:48.972Z,0.63
2018-07-01T05:23:17.899Z,0.70
2018-07-01T05:25:46.884Z,0.50
2018-07-01T05:28:15.818Z,0.73
2018-07-01T05:30:44.722Z,0.70
2018-07-01T05:33:13.621Z,0.60
2018-07-01T05:35:42.507Z,0.60
2018-07-01T05:38:11.574Z,0.60
2018-07-01T05:40:40.462Z,0.60
2018-07-01T05:43:09.476Z,0.63
2018-07-01T05:45:38.507Z,0.70
2018-07-01T05:48:07.480Z,0.40
2018-07-01T05:50:36.388Z,0.60
2018-07-01T05:53:05.575Z,0.40
2018-07-01T05:55:34.586Z,0.60
2018-07-01T05:58:03.597Z,0.50
2018-07-01T06:00:32.622Z,0.60
2018-07-01T06:03:01.647Z,0.50
2018-07-01T06:05:30.584Z,0.73
2018-07-01T06:07:59.570Z,0.60
2018-07-01T06:10:28.520Z,0.60
2018-07-01T06:12:57.509Z,0.43
2018-07-01T06:15:26.399Z,0.50
2018-07-01T06:17:55.527Z,0.50
2018-07-01T06:20:24.738Z,0.80
2018-07-01T06:22:53.644Z,0.40
2018-07-01T06:25:22.510Z,0.47
2018-07-01T06:27:51.502Z,0.67
2018-07-01T06:30:20.434Z,0.60
2018-07-01T06:32:49.346Z,0.60
2018-07-01T06:35:18.202Z,0.87
2018-07-01T06:37:47.098Z,0.50
2018-07-01T06:40:16.031Z,0.67
2018-07-01T06:42:45.087Z,0.90
2018-07-01T06:45:14.035Z,0.50
2018-07-01T06:47:42.970Z,0.50
2018-07-01T06:50:11.938Z,0.60
2018-07-01T06:52:40.963Z,0.63
2018-07-01T06:55:09.892Z,0.53
2018-07-01T06:57:38.813Z,0.70
2018-07-01T07:00:07.732Z,0.63
2018-07-01T07:02:36.770Z,0.67
2018-07-01T07:05:05.940Z,0.50
2018-07-01T07:07:34.982Z,0.80
2018-07-01T07:10:04.290Z,0.53
2018-07-01T07:12:33.294Z,0.70
2018-07-01T07:15:02.311Z,0.57
2018-07-01T07:17:31.199Z,0.70
2018-07-01T07:20:00.128Z,0.50
2018-07-01T07:22:29.078Z,0.50
2018-07-01T07:24:58.014Z,0.50
2018-07-01T07:27:27.039Z,0.50
2018-07-01T07:29:56.026Z,0.67
2018-07-01T07:32:24.910Z,0.40
2018-07-01T07:34:53.786Z,0.67
2018-07-01T07:37:22.703Z,0.50
2018-07-01T07:39:51.622Z,0.57
2018-07-01T07:42:20.491Z,0.60
2018-07-01T07:44:49.536Z,0.47
2018-07-01T07:47:18.436Z,0.60
2018-07-01T07:49:47.327Z,0.80
2018-07-01T07:52:16.276Z,0.50
2018-07-01T07:54:45.146Z,0.47
2018-07-01T07:57:14.168Z,0.50
2018-07-01T07:59:44.181Z,0.57
2018-07-01T08:02:13.219Z,0.50
2018-07-01T08:04:42.102Z,0.40
2018-07-01T08:07:11.539Z,0.63
2018-07-01T08:09:40.478Z,0.53
2018-07-01T08:12:09.394Z,0.50
2018-07-01T08:14:38.269Z,0.60
2018-07-01T08:17:07.301Z,0.60
2018-07-01T08:19:36.387Z,0.50
2018-07-01T08:22:05.479Z,0.37
2018-07-01T08:24:34.293Z,0.50
2018-07-01T08:27:03.218Z,0.60
2018-07-01T08:29:32.333Z,0.70
2018-07-01T08:32:02.079Z,0.50
2018-07-01T08:34:31.063Z,0.53
2018-07-01T08:36:59.998Z,0.70
2018-07-01T08:39:28.926Z,0.70
2018-07-01T08:42:31.386Z,0.60
2018-07-01T08:45:01.403Z,1.03
2018-07-01T08:47:30.652Z,0.47
2018-07-01T08:49:59.534Z,0.70
2018-07-01T08:52:28.624Z,0.77
2018-07-01T08:54:57.502Z,0.60
2018-07-01T08:57:26.387Z,1.00
2018-07-01T08:59:55.265Z,0.90
2018-07-01T09:02:24.177Z,0.70
2018-07-01T09:04:53.210Z,0.73
2018-07-01T09:07:21.949Z,0.70
2018-07-01T09:09:51.613Z,0.80
2018-07-01T09:12:20.594Z,0.60
2018-07-01T09:14:49.814Z,0.50
2018-07-01T09:17:18.893Z,0.50
2018-07-01T09:19:47.891Z,0.40
2018-07-01T09:22:17.024Z,0.50
2018-07-01T09:24:46.039Z,2.30
2018-07-01T09:27:14.970Z,0.60
2018-07-01T09:29:49.196Z,0.70
2018-07-01T09:32:17.946Z,0.40
2018-07-01T09:34:46.860Z,0.60
2018-07-01T09:37:15.686Z,0.50
2018-07-01T09:39:44.510Z,0.63
2018-07-01T09:42:13.490Z,0.40
2018-07-01T09:44:42.372Z,0.40
2018-07-01T09:47:11.334Z,0.70
2018-07-01T09:49:40.206Z,0.30
2018-07-01T09:52:09.099Z,0.70
2018-07-01T09:54:38.052Z,0.60
2018-07-01T09:57:06.971Z,0.60
2018-07-01T09:59:35.974Z,0.60
2018-07-01T10:02:04.930Z,0.60
2018-07-01T10:04:33.966Z,0.60
2018-07-01T10:07:03.244Z,0.50
2018-07-01T10:09:35.155Z,0.50
2018-07-01T10:12:04.056Z,0.40
2018-07-01T10:14:32.908Z,0.40
2018-07-01T10:17:01.751Z,0.40
2018-07-01T10:19:30.578Z,0.60
2018-07-01T10:21:59.692Z,0.50
2018-07-01T10:24:28.550Z,0.47
2018-07-01T10:26:57.406Z,0.40
2018-07-01T10:29:26.292Z,0.60
2018-07-01T10:31:55.120Z,0.70
2018-07-01T10:34:24.006Z,0.50
2018-07-01T10:36:52.956Z,0.43
2018-07-01T10:39:21.815Z,0.50
2018-07-01T10:41:50.649Z,0.50
2018-07-01T10:44:19.482Z,0.40
2018-07-01T10:46:48.344Z,0.33
2018-07-01T10:49:17.182Z,0.40
2018-07-01T10:51:46.310Z,0.60
2018-07-01T10:54:15.108Z,0.47
2018-07-01T10:56:43.732Z,0.50
2018-07-01T10:59:12.446Z,0.30
2018-07-01T11:01:41.304Z,0.40
2018-07-01T11:04:10.159Z,0.53
2018-07-01T11:06:38.990Z,0.43
2018-07-01T11:09:09.630Z,0.40
2018-07-01T11:11:38.544Z,0.67
2018-07-01T11:14:07.374Z,0.40
2018-07-01T11:16:36.222Z,0.33
2018-07-01T11:19:05.129Z,0.30
2018-07-01T11:21:33.993Z,0.40
2018-07-01T11:24:02.839Z,0.43
2018-07-01T11:26:31.747Z,0.50
2018-07-01T11:29:00.594Z,0.50
2018-07-01T11:31:29.430Z,0.37
2018-07-01T11:33:58.330Z,0.27
2018-07-01T11:36:27.186Z,0.37
2018-07-01T11:38:56.030Z,0.30
2018-07-01T11:41:24.902Z,0.20
2018-07-01T11:43:53.771Z,0.30
2018-07-01T11:46:22.707Z,0.30
2018-07-01T11:48:51.334Z,0.30
2018-07-01T11:51:20.078Z,0.33
2018-07-01T11:53:48.926Z,0.40
2018-07-01T11:56:17.772Z,0.20
2018-07-01T11:58:46.640Z,0.30
2018-07-01T12:01:15.580Z,0.10
2018-07-01T12:03:44.434Z,0.30
2018-07-01T12:06:13.267Z,0.37
2018-07-01T12:08:42.187Z,0.40
2018-07-01T12:11:11.011Z,0.10
2018-07-01T12:13:39.847Z,0.40
2018-07-01T12:16:08.706Z,0.30
2018-07-01T12:18:37.530Z,0.30
2018-07-01T12:21:06.355Z,0.47
2018-07-01T12:23:35.247Z,0.10
2018-07-01T12:26:04.174Z,0.30
2018-07-01T12:28:33.058Z,0.30
2018-07-01T12:31:02.003Z,0.20
2018-07-01T12:33:30.822Z,0.30
2018-07-01T12:35:59.674Z,0.53
2018-07-01T12:38:28.516Z,0.40
2018-07-01T12:40:57.392Z,0.20
2018-07-01T12:43:26.226Z,0.30
2018-07-01T12:45:55.066Z,0.30
2018-07-01T12:48:23.922Z,0.23
2018-07-01T12:50:52.806Z,0.23
2018-07-01T12:53:21.687Z,0.20
2018-07-01T12:55:50.527Z,0.20
2018-07-01T12:58:19.356Z,0.40
2018-07-01T13:00:48.205Z,0.43
2018-07-01T13:03:17.114Z,0.37
2018-07-01T13:05:45.952Z,0.30
2018-07-01T13:08:14.834Z,0.40
2018-07-01T13:10:43.460Z,0.10
2018-07-01T13:13:12.179Z,0.30
2018-07-01T13:15:41.086Z,0.27
2018-07-01T13:18:09.894Z,0.47
2018-07-01T13:20:38.795Z,0.40
2018-07-01T13:23:07.618Z,0.40
2018-07-01T13:25:36.488Z,0.40
2018-07-01T13:28:06.016Z,0.30
2018-07-01T13:30:34.890Z,0.20
2018-07-01T13:33:03.755Z,0.40
2018-07-01T13:35:32.622Z,0.30
2018-07-01T13:38:01.479Z,0.30
2018-07-01T13:40:30.330Z,0.33
2018-07-01T13:42:59.154Z,0.20
2018-07-01T13:45:27.990Z,0.40
2018-07-01T13:47:56.826Z,0.30
2018-07-01T13:50:25.668Z,0.27
2018-07-01T13:52:54.778Z,0.20
2018-07-01T13:55:23.649Z,0.40
2018-07-01T13:57:52.514Z,0.23
2018-07-01T14:00:21.363Z,0.40
2018-07-01T14:02:50.226Z,0.30
2018-07-01T14:05:19.051Z,0.20
2018-07-01T14:07:47.875Z,0.40
2018-07-01T14:10:16.506Z,0.40
2018-07-01T14:12:45.206Z,0.30
2018-07-01T14:15:14.075Z,0.20
2018-07-01T14:17:42.899Z,0.30
2018-07-01T14:20:11.848Z,0.40
2018-07-01T14:22:40.795Z,0.20
2018-07-01T14:25:10.023Z,0.37
2018-07-01T14:27:39.391Z,0.30
2018-07-01T14:30:08.541Z,0.20
2018-07-01T14:32:37.507Z,0.30
2018-07-01T14:35:06.410Z,0.30
2018-07-01T14:37:35.354Z,0.40
2018-07-01T14:40:04.318Z,0.60
2018-07-01T14:42:33.171Z,0.30
2018-07-01T14:45:02.018Z,0.30
2018-07-01T14:47:30.842Z,0.30
2018-07-01T14:49:59.667Z,0.23
2018-07-01T14:52:28.722Z,0.30
2018-07-01T14:54:57.619Z,0.23
2018-07-01T14:57:26.386Z,0.30
2018-07-01T14:59:55.206Z,0.30
2018-07-01T15:02:24.043Z,0.27
2018-07-01T15:04:52.882Z,0.10
2018-07-01T15:07:21.715Z,0.30
2018-07-01T15:09:50.582Z,0.40
2018-07-01T15:12:19.428Z,0.30
2018-07-01T15:14:48.262Z,0.40
2018-07-01T15:17:17.114Z,0.30
2018-07-01T15:19:45.962Z,0.33
2018-07-01T15:22:14.816Z,0.30
2018-07-01T15:24:43.622Z,0.30
2018-07-01T15:27:12.538Z,0.30
2018-07-01T15:29:41.692Z,0.30
2018-07-01T15:32:10.524Z,0.53
2018-07-01T15:34:39.391Z,0.30
2018-07-01T15:37:08.315Z,0.30
2018-07-01T15:39:37.177Z,0.30
2018-07-01T15:42:06.014Z,0.33
2018-07-01T15:44:34.853Z,0.30
2018-07-01T15:47:03.730Z,0.30
2018-07-01T15:49:32.563Z,0.20
2018-07-01T15:52:01.184Z,0.50
2018-07-01T15:54:29.949Z,0.30
2018-07-01T15:56:58.887Z,0.40
2018-07-01T15:59:27.746Z,0.40
2018-07-01T16:01:56.586Z,0.67
2018-07-01T16:04:25.610Z,0.40
2018-07-01T16:06:54.470Z,0.20
2018-07-01T16:09:23.295Z,0.43
2018-07-01T16:11:52.213Z,0.20
2018-07-01T16:14:20.957Z,0.20
2018-07-01T16:16:49.574Z,0.30
2018-07-01T16:19:18.338Z,0.30
2018-07-01T16:21:47.180Z,0.30
2018-07-01T16:24:15.998Z,0.20
2018-07-01T16:26:50.236Z,0.30
2018-07-01T16:29:19.066Z,0.27
2018-07-01T16:31:47.899Z,0.40
2018-07-01T16:34:16.874Z,0.40
2018-07-01T16:36:45.506Z,0.30
2018-07-01T16:39:14.242Z,0.20
2018-07-01T16:41:43.070Z,0.60
2018-07-01T16:44:11.950Z,0.43
2018-07-01T16:46:40.782Z,0.40
2018-07-01T16:49:09.642Z,0.30
2018-07-01T16:51:38.478Z,0.40
2018-07-01T16:54:07.314Z,0.30
2018-07-01T16:56:36.174Z,0.27
2018-07-01T16:59:05.022Z,0.30
2018-07-01T17:01:33.907Z,0.30
2018-07-01T17:04:02.733Z,0.40
2018-07-01T17:06:31.745Z,0.30
2018-07-01T17:09:00.815Z,0.30
2018-07-01T17:11:29.776Z,0.40
2018-07-01T17:13:58.943Z,0.30
2018-07-01T17:16:28.070Z,0.30
2018-07-01T17:18:57.093Z,0.20
2018-07-01T17:21:26.044Z,0.50
2018-07-01T17:23:54.900Z,0.30
2018-07-01T17:26:23.736Z,0.30
2018-07-01T17:28:52.582Z,0.30
2018-07-01T17:31:26.934Z,0.40
2018-07-01T17:33:55.765Z,0.30
2018-07-01T17:36:24.417Z,0.40
2018-07-01T17:38:53.130Z,0.37
2018-07-01T17:41:21.986Z,0.40
2018-07-01T17:43:50.860Z,0.50
2018-07-01T17:46:19.693Z,0.37
2018-07-01T17:48:48.549Z,0.40
2018-07-01T17:51:17.371Z,0.50
2018-07-01T17:53:51.285Z,0.50
2018-07-01T17:56:20.102Z,0.47
2018-07-01T17:58:48.926Z,0.30
2018-07-01T18:01:17.962Z,0.30
2018-07-01T18:03:46.819Z,0.30
2018-07-01T18:06:15.646Z,0.30
2018-07-01T18:08:44.487Z,0.40
2018-07-01T18:11:13.330Z,0.40
2018-07-01T18:13:42.147Z,0.40
2018-07-01T18:16:10.978Z,0.40
2018-07-01T18:18:39.826Z,0.50
2018-07-01T18:21:08.699Z,0.40
2018-07-01T18:24:11.130Z,0.40
2018-07-01T18:26:06.374Z,0.67
2018-07-01T18:28:45.189Z,0.30
2018-07-01T18:31:04.050Z,0.30
2018-07-01T18:33:32.910Z,0.30
2018-07-01T18:36:01.758Z,0.40
2018-07-01T18:38:30.586Z,0.67
2018-07-01T18:40:59.461Z,0.53
2018-07-01T18:43:28.066Z,0.60
2018-07-01T18:45:56.799Z,0.50
2018-07-01T18:48:25.625Z,0.40
2018-07-01T18:50:54.450Z,0.30
2018-07-01T18:53:23.347Z,0.70
2018-07-01T18:55:52.209Z,0.37
2018-07-01T18:58:21.051Z,0.30
2018-07-01T19:00:49.882Z,0.40
2018-07-01T19:03:20.596Z,0.47
2018-07-01T19:05:49.422Z,0.43
2018-07-01T19:08:18.269Z,0.27
2018-07-01T19:10:47.206Z,0.30
2018-07-01T19:13:16.082Z,0.23
2018-07-01T19:15:44.926Z,0.60
2018-07-01T19:18:13.841Z,0.30
2018-07-01T19:20:42.669Z,0.53
2018-07-01T19:23:11.533Z,0.60
2018-07-01T19:25:40.387Z,0.63
2018-07-01T19:28:09.334Z,0.43
2018-07-01T19:30:38.182Z,1.27
2018-07-01T19:33:07.062Z,0.70
2018-07-01T19:35:35.930Z,0.50
2018-07-01T19:38:04.953Z,0.40
2018-07-01T19:40:33.811Z,0.47
2018-07-01T19:43:02.832Z,0.40
2018-07-01T19:45:31.334Z,0.60
2018-07-01T19:48:00.114Z,0.73
2018-07-01T19:50:29.867Z,0.60
2018-07-01T19:52:58.761Z,0.40
2018-07-01T19:55:27.627Z,0.67
2018-07-01T19:57:56.470Z,0.83
2018-07-01T20:00:25.129Z,0.47
2018-07-01T20:02:53.807Z,1.00
2018-07-01T20:05:22.682Z,0.70
2018-07-01T20:07:51.518Z,0.83
2018-07-01T20:10:20.137Z,0.70
2018-07-01T20:12:48.683Z,0.63
2018-07-01T20:15:17.558Z,0.50
2018-07-01T20:17:46.516Z,0.70
2018-07-01T20:20:15.340Z,0.60
2018-07-01T20:22:44.158Z,0.60
2018-07-01T20:25:13.048Z,0.60
2018-07-01T20:27:41.928Z,0.60
2018-07-01T20:30:10.546Z,0.80
2018-07-01T20:32:39.257Z,0.60
2018-07-01T20:35:08.143Z,0.90
2018-07-01T20:37:36.986Z,0.40
2018-07-01T20:40:05.862Z,0.70
2018-07-01T20:42:34.741Z,0.70
2018-07-01T20:45:03.535Z,0.70
2018-07-01T20:47:32.369Z,0.60
2018-07-01T20:50:01.358Z,0.50
2018-07-01T20:52:30.190Z,0.70
2018-07-01T20:54:59.118Z,0.80
2018-07-01T20:57:27.954Z,0.60
2018-07-01T20:59:56.823Z,0.70
2018-07-01T21:02:25.681Z,0.53
2018-07-01T21:04:54.502Z,0.70
2018-07-01T21:07:23.354Z,0.60
2018-07-01T21:09:52.170Z,0.37
2018-07-01T21:12:21.022Z,0.40
2018-07-01T21:14:49.866Z,0.30
2018-07-01T21:17:18.738Z,0.40
2018-07-01T21:19:47.642Z,0.33
2018-07-01T21:22:16.460Z,0.47
2018-07-01T21:24:45.383Z,0.60
2018-07-01T21:27:14.606Z,1.00
2018-07-01T21:29:43.638Z,0.70
2018-07-01T21:32:12.498Z,0.77
2018-07-01T21:34:41.382Z,0.53
2018-07-01T21:37:10.214Z,0.50
2018-07-01T21:39:39.074Z,0.60
2018-07-01T21:42:07.898Z,1.10
2018-07-01T21:44:36.722Z,1.30
2018-07-01T21:47:05.629Z,1.00
2018-07-01T21:49:34.500Z,1.03
2018-07-01T21:52:03.449Z,0.73
2018-07-01T21:54:32.359Z,0.90
2018-07-01T21:57:01.228Z,0.60
2018-07-01T21:59:30.079Z,0.80
2018-07-01T22:01:59.037Z,1.10
2018-07-01T22:04:28.061Z,0.70
2018-07-01T22:06:58.762Z,0.70
2018-07-01T22:09:28.194Z,0.50
2018-07-01T22:12:08.828Z,0.70
2018-07-01T22:14:49.030Z,0.77
2018-07-01T22:17:17.896Z,0.50
2018-07-01T22:19:46.737Z,0.90
2018-07-01T22:22:15.650Z,0.67
2018-07-01T22:24:44.525Z,0.80
2018-07-01T22:27:13.429Z,0.87
2018-07-01T22:29:42.262Z,0.60
2018-07-01T22:32:11.141Z,0.60
2018-07-01T22:34:39.990Z,0.80
2018-07-01T22:37:09.944Z,0.70
2018-07-01T22:39:38.838Z,0.80
2018-07-01T22:42:07.852Z,1.07
2018-07-01T22:44:36.742Z,0.70
2018-07-01T22:47:05.658Z,0.90
2018-07-01T22:49:34.538Z,1.00
2018-07-01T22:52:03.434Z,0.87
2018-07-01T22:54:32.263Z,0.77
2018-07-01T22:57:01.189Z,0.87
2018-07-01T22:59:30.103Z,1.10
2018-07-01T23:03:12.835Z,1.10
2018-07-01T23:05:42.410Z,1.17
2018-07-01T23:08:11.296Z,1.40
2018-07-01T23:10:40.189Z,1.10
2018-07-01T23:13:09.176Z,1.13
2018-07-01T23:15:38.065Z,1.00
2018-07-01T23:18:07.042Z,0.93
2018-07-01T23:20:35.926Z,0.80
2018-07-01T23:23:04.839Z,1.17
2018-07-01T23:25:33.778Z,0.80
2018-07-01T23:28:02.642Z,0.90
2018-07-01T23:30:31.554Z,1.07
2018-07-01T23:33:00.453Z,1.00
2018-07-01T23:35:29.313Z,0.97
2018-07-01T23:37:58.562Z,1.03
2018-07-01T23:40:27.435Z,0.97
2018-07-01T23:42:56.304Z,0.90
2018-07-01T23:45:25.184Z,0.90
2018-07-01T23:47:54.050Z,1.20
2018-07-01T23:50:22.693Z,0.97
2018-07-01T23:52:51.499Z,1.10
2018-07-01T23:55:20.342Z,0.93
2018-07-01T23:57:49.211Z,1.03
